Time;durP1;ratioP1;P1;durP2;ratioP2;P2;SDS_P1;SDS_P2;PMS_P1;PMS_P2;Temp;Humidity;BMP_temperature;BMP_pressure;BME280_temperature;BME280_humidity;BME280_pressure;Samples;Min_cycle;Max_cycle;Signal;HPM_P1;HPM_P2
2023/06/21 00:00:40;;;;;;;36.80;33.40;;;19.30;99.90;;;;;;4991890;28;21017;-53
2023/06/21 00:03:07;;;;;;;43.50;34.07;;;19.30;99.90;;;;;;4991461;28;20576;-53
2023/06/21 00:05:34;;;;;;;43.27;34.87;;;19.30;99.90;;;;;;5003071;28;20536;-53
2023/06/21 00:08:00;;;;;;;37.67;34.13;;;19.30;99.90;;;;;;4994741;28;20453;-52
2023/06/21 00:10:29;;;;;;;35.53;31.97;;;19.30;99.90;;;;;;4989967;28;20579;-53
2023/06/21 00:12:56;;;;;;;39.13;35.07;;;19.30;99.90;;;;;;4981736;28;20456;-52
2023/06/21 00:15:23;;;;;;;37.50;33.87;;;19.30;99.90;;;;;;4991906;28;20518;-52
2023/06/21 00:17:50;;;;;;;36.20;32.80;;;19.20;99.90;;;;;;4992448;28;20531;-51
2023/06/21 00:20:17;;;;;;;34.80;31.40;;;19.20;99.90;;;;;;4991983;28;20488;-52
2023/06/21 00:22:45;;;;;;;41.50;35.00;;;19.20;99.90;;;;;;4992203;28;20459;-53
2023/06/21 00:25:12;;;;;;;40.93;34.50;;;19.20;99.90;;;;;;4991051;28;20491;-52
2023/06/21 00:27:42;;;;;;;37.57;33.53;;;19.20;99.90;;;;;;4993274;28;20891;-52
2023/06/21 00:30:09;;;;;;;36.17;32.50;;;19.20;99.90;;;;;;5007993;28;20598;-52
2023/06/21 00:32:37;;;;;;;34.87;31.57;;;19.10;99.90;;;;;;5008212;28;20481;-52
2023/06/21 00:35:04;;;;;;;36.77;32.80;;;19.10;99.90;;;;;;4991593;28;20488;-52
2023/06/21 00:37:31;;;;;;;38.63;33.97;;;19.10;99.90;;;;;;4990293;28;20878;-53
2023/06/21 00:39:57;;;;;;;40.27;36.30;;;19.00;99.90;;;;;;4988519;28;20576;-52
2023/06/21 00:42:24;;;;;;;37.40;33.80;;;19.00;99.90;;;;;;4995391;28;20551;-52
2023/06/21 00:44:52;;;;;;;37.13;33.40;;;19.00;99.90;;;;;;4991567;28;20492;-52
2023/06/21 00:47:19;;;;;;;39.27;35.33;;;19.00;99.90;;;;;;4996155;28;20905;-52
2023/06/21 00:49:45;;;;;;;42.87;35.47;;;19.00;99.90;;;;;;4999857;28;20473;-52
2023/06/21 00:52:12;;;;;;;37.27;33.87;;;19.00;99.90;;;;;;4996741;28;20503;-52
2023/06/21 00:54:40;;;;;;;41.63;34.20;;;19.00;99.90;;;;;;4996843;28;20498;-52
2023/06/21 00:57:07;;;;;;;37.97;34.27;;;18.90;99.90;;;;;;4993448;28;20850;-52
2023/06/21 00:59:35;;;;;;;36.33;32.70;;;18.90;99.90;;;;;;4993100;28;20488;-52
2023/06/21 01:02:03;;;;;;;37.43;33.43;;;18.90;99.90;;;;;;4994162;28;20870;-52
2023/06/21 01:04:32;;;;;;;35.57;32.17;;;18.80;99.90;;;;;;4994602;28;20480;-52
2023/06/21 01:07:08;;;;;;;36.80;33.40;;;18.80;99.90;;;;;;4995264;28;20484;-52
2023/06/21 01:09:44;;;;;;;36.70;33.13;;;18.80;99.90;;;;;;5000316;28;20518;-53
2023/06/21 01:12:32;;;;;;;35.50;32.00;;;18.80;99.90;;;;;;4994807;28;20491;-52
2023/06/21 01:15:02;;;;;;;40.63;36.70;;;18.80;99.90;;;;;;4994252;28;20477;-51
2023/06/21 01:17:35;;;;;;;36.47;33.17;;;18.80;99.90;;;;;;4994539;28;20472;-52
2023/06/21 01:20:08;;;;;;;37.57;33.77;;;18.70;99.90;;;;;;4981199;28;20575;-52
2023/06/21 01:26:10;;;;;;;36.83;33.37;;;18.80;99.90;;;;;;4985617;28;20985;-52
2023/06/21 01:28:50;;;;;;;38.20;34.10;;;18.80;99.90;;;;;;4990483;28;20557;-53
2023/06/21 01:31:18;;;;;;;37.90;31.73;;;18.80;99.90;;;;;;4994387;28;20479;-53
2023/06/21 01:33:45;;;;;;;39.03;34.90;;;18.80;99.90;;;;;;4993762;28;20970;-52
2023/06/21 01:36:13;;;;;;;40.93;34.00;;;18.80;99.90;;;;;;4992738;28;20460;-52
2023/06/21 01:38:39;;;;;;;35.53;32.23;;;18.80;99.90;;;;;;4990682;28;20592;-50
2023/06/21 01:41:10;;;;;;;36.83;33.47;;;18.80;99.90;;;;;;4990021;28;20581;-51
2023/06/21 01:43:37;;;;;;;35.03;31.83;;;18.80;99.90;;;;;;4993102;28;20461;-52
2023/06/21 01:46:06;;;;;;;37.57;34.07;;;18.70;99.90;;;;;;4992605;28;20551;-52
2023/06/21 01:48:35;;;;;;;36.03;32.40;;;18.70;99.90;;;;;;4993780;28;20500;-52
2023/06/21 01:51:04;;;;;;;36.20;32.77;;;18.70;99.90;;;;;;4993092;28;20497;-52
2023/06/21 01:53:32;;;;;;;35.13;31.53;;;18.70;99.90;;;;;;4996539;28;20885;-53
2023/06/21 01:56:01;;;;;;;34.50;31.30;;;18.80;99.90;;;;;;4990304;28;20465;-52
2023/06/21 01:58:28;;;;;;;37.30;33.70;;;18.80;99.90;;;;;;4989381;28;20504;-53
2023/06/21 02:00:55;;;;;;;35.20;31.73;;;18.80;99.90;;;;;;4992183;28;20493;-52
2023/06/21 02:03:23;;;;;;;33.90;30.60;;;18.80;99.90;;;;;;4992384;28;20545;-52
2023/06/21 02:05:51;;;;;;;36.53;33.23;;;18.80;99.90;;;;;;4992093;28;20460;-52
2023/06/21 02:08:19;;;;;;;37.10;33.57;;;18.80;99.90;;;;;;4992260;28;20555;-52
2023/06/21 02:10:46;;;;;;;38.20;33.80;;;18.80;99.90;;;;;;4992134;28;20476;-53
2023/06/21 02:13:14;;;;;;;37.77;34.20;;;18.80;99.90;;;;;;4991397;28;20531;-52
2023/06/21 02:15:41;;;;;;;36.23;32.60;;;18.80;99.90;;;;;;4992891;28;20548;-52
2023/06/21 02:18:09;;;;;;;37.73;34.03;;;18.80;99.90;;;;;;4998969;28;21160;-52
2023/06/21 02:20:37;;;;;;;35.73;32.43;;;18.80;99.90;;;;;;4993562;28;20495;-51
2023/06/21 02:23:05;;;;;;;36.30;32.73;;;18.80;99.90;;;;;;4991886;28;20947;-52
2023/06/21 02:25:35;;;;;;;36.07;32.60;;;18.80;99.90;;;;;;4989493;28;20469;-53
2023/06/21 02:28:01;;;;;;;38.10;33.50;;;18.80;99.90;;;;;;4991349;28;20950;-52
2023/06/21 02:30:29;;;;;;;38.23;33.47;;;18.80;99.90;;;;;;4990760;28;20583;-53
2023/06/21 02:32:55;;;;;;;48.97;31.73;;;18.80;99.90;;;;;;4999915;28;20460;-52
2023/06/21 02:35:22;;;;;;;38.80;34.70;;;18.80;99.90;;;;;;4990698;28;20567;-51
2023/06/21 02:37:48;;;;;;;40.03;35.93;;;18.90;99.90;;;;;;4987380;28;20555;-53
2023/06/21 02:40:17;;;;;;;39.47;35.57;;;18.90;99.90;;;;;;4990921;28;21054;-52
2023/06/21 02:42:43;;;;;;;36.83;33.23;;;18.80;99.90;;;;;;4990508;28;20830;-53
2023/06/21 02:45:10;;;;;;;37.47;33.90;;;18.90;99.90;;;;;;4990203;28;20547;-52
2023/06/21 02:47:37;;;;;;;37.60;33.43;;;18.90;99.90;;;;;;4984901;28;20985;-53
2023/06/21 02:50:05;;;;;;;36.70;33.10;;;18.90;99.90;;;;;;4999600;28;20575;-52
2023/06/21 02:52:31;;;;;;;39.23;35.60;;;19.00;99.90;;;;;;4993225;28;20640;-52
2023/06/21 02:54:58;;;;;;;37.07;33.53;;;19.00;99.90;;;;;;4991504;28;20576;-52
2023/06/21 02:57:26;;;;;;;36.57;32.70;;;19.00;99.90;;;;;;4991806;28;20551;-53
2023/06/21 02:59:53;;;;;;;35.63;32.33;;;19.00;99.90;;;;;;4994859;28;20526;-51
2023/06/21 03:02:21;;;;;;;36.10;32.50;;;19.10;99.90;;;;;;4999122;28;20611;-52
2023/06/21 03:04:48;;;;;;;35.27;31.67;;;19.10;99.90;;;;;;4990227;28;20511;-52
2023/06/21 03:07:15;;;;;;;32.80;29.70;;;19.10;99.90;;;;;;4989568;28;20484;-51
2023/06/21 03:09:41;;;;;;;34.00;30.50;;;19.10;99.90;;;;;;4990353;28;20469;-51
2023/06/21 03:12:08;;;;;;;37.23;32.63;;;19.10;99.90;;;;;;4992806;28;20464;-52
2023/06/21 03:14:38;;;;;;;36.13;32.40;;;19.10;99.90;;;;;;4991640;28;20539;-52
2023/06/21 03:17:04;;;;;;;39.57;31.20;;;19.20;99.90;;;;;;5000747;28;20946;-52
2023/06/21 03:19:31;;;;;;;36.60;32.83;;;19.20;99.90;;;;;;4996762;28;20471;-53
2023/06/21 03:21:57;;;;;;;35.13;31.70;;;19.20;99.90;;;;;;4990601;28;20487;-52
2023/06/21 03:24:26;;;;;;;35.27;31.57;;;19.20;99.90;;;;;;4990096;28;20991;-52
2023/06/21 03:26:53;;;;;;;35.13;31.73;;;19.20;99.90;;;;;;4990054;28;20904;-52
2023/06/21 03:29:19;;;;;;;35.33;31.80;;;19.20;99.90;;;;;;4980938;28;20489;-52
2023/06/21 03:31:47;;;;;;;40.10;32.73;;;19.20;99.90;;;;;;5000202;28;20548;-52
2023/06/21 03:34:14;;;;;;;34.50;30.90;;;19.20;99.90;;;;;;5002025;28;20875;-52
2023/06/21 03:36:40;;;;;;;38.93;32.67;;;19.20;99.90;;;;;;4994269;28;20551;-52
2023/06/21 03:39:07;;;;;;;37.67;33.83;;;19.20;99.90;;;;;;4996541;28;20564;-51
2023/06/21 03:41:33;;;;;;;36.83;33.03;;;19.20;99.90;;;;;;4986458;28;20572;-52
2023/06/21 03:44:00;;;;;;;37.40;31.97;;;19.20;99.90;;;;;;4991534;28;20530;-52
2023/06/21 03:46:26;;;;;;;44.97;33.27;;;19.20;99.90;;;;;;4990117;28;20554;-51
2023/06/21 03:48:55;;;;;;;37.23;32.43;;;19.20;1.40;;;;;;4990438;28;20548;-53
2023/06/21 03:51:22;;;;;;;38.07;34.17;;;19.20;99.90;;;;;;4991597;28;20475;-52
2023/06/21 03:53:48;;;;;;;35.63;32.30;;;19.20;99.90;;;;;;4991435;28;20542;-51
2023/06/21 03:56:17;;;;;;;38.40;34.50;;;19.20;99.90;;;;;;4991452;28;20496;-52
2023/06/21 03:58:43;;;;;;;38.17;34.07;;;19.20;99.90;;;;;;4992269;28;20456;-52
2023/06/21 04:01:10;;;;;;;37.67;33.77;;;19.20;99.90;;;;;;4990863;28;20579;-52
2023/06/21 04:03:36;;;;;;;38.80;34.97;;;19.20;99.90;;;;;;4989825;28;20551;-51
2023/06/21 04:06:04;;;;;;;36.33;32.63;;;19.20;99.90;;;;;;4989674;28;20631;-50
2023/06/21 04:08:31;;;;;;;35.93;32.23;;;19.20;99.90;;;;;;4990616;28;20548;-51
2023/06/21 04:10:57;;;;;;;38.40;32.07;;;19.20;99.90;;;;;;4991395;28;20904;-52
2023/06/21 04:13:24;;;;;;;37.17;33.37;;;19.30;99.90;;;;;;4991543;28;20540;-51
2023/06/21 04:15:50;;;;;;;36.87;32.97;;;19.30;99.90;;;;;;4996689;28;20555;-52
2023/06/21 04:18:17;;;;;;;37.50;34.03;;;19.30;99.90;;;;;;5000749;28;20523;-52
2023/06/21 04:20:43;;;;;;;38.83;34.97;;;19.30;99.90;;;;;;4993856;28;20500;-52
2023/06/21 04:23:11;;;;;;;39.53;35.30;;;19.30;99.90;;;;;;4994363;28;20461;-59
2023/06/21 04:25:38;;;;;;;40.30;36.20;;;19.30;99.90;;;;;;4995433;28;20552;-52
2023/06/21 04:28:04;;;;;;;40.43;36.53;;;19.30;99.90;;;;;;4989536;28;20547;-51
2023/06/21 04:30:34;;;;;;;39.50;35.30;;;19.30;99.90;;;;;;4987878;28;20488;-52
2023/06/21 04:33:00;;;;;;;42.53;38.13;;;19.30;99.90;;;;;;4992838;28;20887;-51
2023/06/21 04:35:27;;;;;;;41.47;37.37;;;19.40;99.90;;;;;;4994494;28;20548;-51
2023/06/21 04:37:54;;;;;;;43.77;39.63;;;19.40;99.90;;;;;;4995064;28;20463;-52
2023/06/21 04:40:22;;;;;;;42.13;38.03;;;19.40;99.90;;;;;;4993417;28;20567;-52
2023/06/21 04:42:54;;;;;;;50.37;40.13;;;19.40;99.90;;;;;;4990869;28;20485;-52
2023/06/21 04:45:21;;;;;;;41.67;37.37;;;19.50;99.90;;;;;;4988353;28;20464;-51
2023/06/21 04:47:48;;;;;;;43.33;39.23;;;19.50;99.90;;;;;;5007435;28;21002;-51
2023/06/21 04:50:15;;;;;;;45.07;40.43;;;19.60;99.90;;;;;;5007514;28;20492;-51
2023/06/21 04:52:47;;;;;;;45.67;40.83;;;19.60;99.90;;;;;;4989824;28;20472;-51
2023/06/21 04:55:17;;;;;;;43.03;38.77;;;19.60;99.90;;;;;;4986849;28;20457;-51
2023/06/21 04:57:46;;;;;;;46.97;42.20;;;19.70;99.90;;;;;;4989623;28;20511;-51
2023/06/21 05:00:14;;;;;;;48.03;42.80;;;19.70;99.90;;;;;;4994130;28;20564;-51
2023/06/21 05:02:40;;;;;;;42.00;37.80;;;19.70;99.90;;;;;;4992027;28;20886;-52
2023/06/21 05:05:07;;;;;;;41.87;37.80;;;19.70;99.90;;;;;;4984993;28;20496;-50
2023/06/21 05:07:37;;;;;;;46.83;41.50;;;19.70;99.90;;;;;;4991824;28;20550;-51
2023/06/21 05:10:04;;;;;;;43.93;39.33;;;19.80;99.90;;;;;;4995029;28;20472;-51
2023/06/21 05:12:31;;;;;;;42.60;38.00;;;19.80;99.90;;;;;;4994740;28;20547;-51
2023/06/21 05:14:58;;;;;;;53.60;38.93;;;19.90;99.90;;;;;;4999278;28;20570;-51
2023/06/21 05:17:25;;;;;;;39.67;35.53;;;19.80;99.90;;;;;;4989004;28;20552;-57
2023/06/21 05:19:51;;;;;;;40.57;36.57;;;19.80;99.90;;;;;;4991806;28;20932;-58
2023/06/21 05:22:18;;;;;;;37.40;33.90;;;19.90;99.90;;;;;;4997632;28;20583;-58
2023/06/21 05:24:45;;;;;;;37.70;33.87;;;19.90;99.90;;;;;;4998721;28;20550;-58
2023/06/21 05:27:12;;;;;;;39.07;35.40;;;19.90;99.90;;;;;;5006426;28;20527;-58
2023/06/21 05:29:38;;;;;;;40.17;36.27;;;19.90;99.90;;;;;;4993372;28;20580;-59
2023/06/21 05:32:07;;;;;;;40.40;36.40;;;20.00;99.90;;;;;;4990344;28;20560;-58
2023/06/21 05:34:33;;;;;;;40.90;36.70;;;20.10;99.90;;;;;;4997301;28;20472;-58
2023/06/21 05:37:00;;;;;;;37.20;33.80;;;20.10;99.90;;;;;;4998574;28;20492;-58
2023/06/21 05:39:26;;;;;;;36.47;33.07;;;20.20;99.90;;;;;;4990827;28;20488;-57
2023/06/21 05:41:53;;;;;;;38.40;34.50;;;20.10;99.90;;;;;;4994800;28;20921;-58
2023/06/21 05:44:19;;;;;;;36.37;32.67;;;20.20;99.90;;;;;;5001710;28;20535;-58
2023/06/21 05:46:46;;;;;;;36.47;32.73;;;20.20;99.90;;;;;;4992799;28;20492;-58
2023/06/21 05:49:13;;;;;;;36.03;32.47;;;20.30;99.90;;;;;;5000655;28;20566;-58
2023/06/21 05:51:40;;;;;;;35.60;32.20;;;20.20;99.90;;;;;;4999728;28;20548;-59
2023/06/21 05:54:06;;;;;;;34.07;30.77;;;20.20;99.90;;;;;;4992792;28;20548;-57
2023/06/21 05:56:37;;;;;;;44.90;31.13;;;20.30;99.90;;;;;;4992974;28;20544;-58
2023/06/21 05:59:03;;;;;;;35.40;31.80;;;20.40;99.90;;;;;;5003962;28;20881;-59
2023/06/21 06:01:30;;;;;;;30.50;27.80;;;20.40;99.90;;;;;;4994318;28;22128;-58
2023/06/21 06:03:56;;;;;;;31.57;28.47;;;20.40;99.90;;;;;;4992695;28;20574;-58
2023/06/21 06:06:34;;;;;;;30.70;27.63;;;20.40;99.90;;;;;;4992102;28;20551;-58
2023/06/21 06:09:00;;;;;;;30.53;27.50;;;20.50;99.90;;;;;;4992697;28;20560;-58
2023/06/21 06:11:27;;;;;;;30.50;27.53;;;20.50;99.90;;;;;;4990950;28;20581;-58
2023/06/21 06:13:53;;;;;;;29.27;26.37;;;20.50;99.90;;;;;;4992767;28;20540;-59
2023/06/21 06:16:20;;;;;;;28.00;25.43;;;20.50;99.90;;;;;;4992592;28;20556;-58
2023/06/21 06:18:47;;;;;;;27.17;24.53;;;20.40;99.90;;;;;;4987434;28;20551;-58
2023/06/21 06:21:14;;;;;;;28.50;24.37;;;20.40;99.90;;;;;;4989772;28;20473;-58
2023/06/21 06:23:42;;;;;;;27.10;24.50;;;20.50;99.90;;;;;;4993433;28;20469;-58
2023/06/21 06:26:09;;;;;;;23.57;21.43;;;20.50;99.90;;;;;;4985254;28;20465;-57
2023/06/21 06:28:35;;;;;;;24.57;22.17;;;20.50;99.90;;;;;;4985087;28;20495;-59
2023/06/21 06:31:02;;;;;;;24.37;21.63;;;20.50;99.90;;;;;;4992966;28;20545;-58
2023/06/21 06:33:28;;;;;;;23.73;21.40;;;20.40;99.90;;;;;;4993830;28;20547;-57
2023/06/21 06:35:55;;;;;;;21.40;19.43;;;20.50;99.90;;;;;;4992117;28;20572;-58
2023/06/21 06:38:21;;;;;;;22.13;20.03;;;20.50;99.90;;;;;;4990582;28;20543;-58
2023/06/21 06:40:49;;;;;;;20.77;18.87;;;20.50;99.90;;;;;;4986903;28;21085;-59
2023/06/21 06:43:16;;;;;;;22.60;19.87;;;20.60;99.90;;;;;;4989887;28;20922;-58
2023/06/21 06:45:42;;;;;;;24.50;18.73;;;20.70;99.90;;;;;;4992305;28;20480;-59
2023/06/21 06:48:09;;;;;;;20.63;18.70;;;20.90;99.90;;;;;;4992229;28;20887;-58
2023/06/21 06:50:38;;;;;;;20.43;18.53;;;20.80;99.90;;;;;;4992725;28;20559;-58
2023/06/21 06:53:05;;;;;;;22.77;20.67;;;20.90;99.90;;;;;;4993516;28;20465;-61
2023/06/21 06:55:32;;;;;;;21.70;19.50;;;21.00;99.90;;;;;;4994739;28;20463;-58
2023/06/21 06:57:59;;;;;;;19.57;17.47;;;21.10;99.90;;;;;;4992972;28;20548;-58
2023/06/21 07:00:26;;;;;;;19.90;18.10;;;21.20;99.90;;;;;;5007420;28;20485;-60
2023/06/21 07:02:56;;;;;;;19.97;18.00;;;21.30;99.90;;;;;;5014719;28;20551;-58
2023/06/21 07:05:23;;;;;;;23.13;18.87;;;21.40;99.90;;;;;;4992044;28;20508;-58
2023/06/21 07:07:49;;;;;;;20.90;18.60;;;21.50;99.90;;;;;;4994547;28;20462;-58
2023/06/21 07:10:16;;;;;;;22.77;20.07;;;21.60;99.90;;;;;;4991701;28;20567;-58
2023/06/21 07:12:43;;;;;;;21.57;19.57;;;21.60;99.90;;;;;;4994912;28;20521;-59
2023/06/21 07:15:11;;;;;;;20.73;18.73;;;21.70;99.90;;;;;;5006678;28;20461;-58
2023/06/21 07:17:38;;;;;;;19.10;17.33;;;21.70;99.90;;;;;;4999039;28;20441;-59
2023/06/21 07:20:06;;;;;;;20.00;17.97;;;21.80;99.90;;;;;;5012233;28;20492;-59
2023/06/21 07:22:33;;;;;;;21.50;17.97;;;21.90;99.90;;;;;;5009691;28;20477;-59
2023/06/21 07:24:59;;;;;;;20.30;18.50;;;22.00;99.90;;;;;;5014551;28;20980;-59
2023/06/21 07:27:26;;;;;;;20.50;18.60;;;22.20;99.90;;;;;;5007555;28;20452;-59
2023/06/21 07:29:53;;;;;;;18.70;16.90;;;22.20;99.90;;;;;;5005593;28;20484;-51
2023/06/21 07:32:21;;;;;;;18.27;16.57;;;22.30;99.90;;;;;;5004326;28;20967;-51
2023/06/21 07:34:48;;;;;;;18.67;16.97;;;22.30;99.90;;;;;;4999885;28;20541;-50
2023/06/21 07:37:14;;;;;;;20.30;15.33;;;22.50;99.90;;;;;;4993054;28;20954;-52
2023/06/21 07:39:41;;;;;;;17.10;15.50;;;22.60;99.90;;;;;;4986433;28;20523;-54
2023/06/21 07:42:08;;;;;;;17.80;15.90;;;22.60;99.90;;;;;;4991142;28;20481;-57
2023/06/21 07:44:35;;;;;;;17.83;16.33;;;22.70;99.90;;;;;;4988424;28;20472;-51
2023/06/21 07:47:02;;;;;;;17.13;13.63;;;22.80;99.90;;;;;;4991467;28;20496;-51
2023/06/21 07:49:30;;;;;;;18.43;16.83;;;22.90;24.30;;;;;;4989037;28;20920;-50
2023/06/21 07:51:56;;;;;;;17.63;15.93;;;22.90;24.70;;;;;;4989816;28;20543;-51
2023/06/21 07:54:23;;;;;;;17.00;14.80;;;23.00;91.60;;;;;;4995968;28;20464;-55
2023/06/21 07:56:50;;;;;;;16.07;14.67;;;23.00;40.70;;;;;;4986936;28;20594;-51
2023/06/21 07:59:17;;;;;;;36.13;13.53;;;23.20;59.90;;;;;;4992304;28;20575;-52
2023/06/21 08:01:43;;;;;;;17.20;13.43;;;23.30;67.10;;;;;;4991130;28;20540;-53
2023/06/21 08:04:10;;;;;;;15.07;12.53;;;23.40;71.30;;;;;;4996704;28;20540;-53
2023/06/21 08:06:37;;;;;;;15.53;12.77;;;23.50;56.30;;;;;;4990304;28;20535;-53
2023/06/21 08:09:04;;;;;;;14.60;13.03;;;23.60;84.90;;;;;;4992783;28;20547;-54
2023/06/21 08:11:31;;;;;;;14.97;13.50;;;23.70;92.00;;;;;;4992633;28;20979;-53
2023/06/21 08:13:57;;;;;;;16.43;13.30;;;23.70;81.30;;;;;;4991639;28;20552;-53
2023/06/21 08:16:24;;;;;;;19.20;14.23;;;23.80;99.90;;;;;;4986236;28;20591;-53
2023/06/21 08:18:51;;;;;;;15.40;13.80;;;23.90;90.00;;;;;;4999038;28;20547;-53
2023/06/21 08:21:17;;;;;;;16.30;14.77;;;24.00;91.20;;;;;;4996803;28;20519;-53
2023/06/21 08:23:46;;;;;;;16.67;15.07;;;24.00;99.90;;;;;;4998986;28;20936;-53
2023/06/21 08:26:12;;;;;;;16.33;14.40;;;24.10;99.90;;;;;;5013398;28;20542;-53
2023/06/21 08:28:39;;;;;;;15.83;14.13;;;24.20;94.30;;;;;;5002525;28;20526;-54
2023/06/21 08:31:05;;;;;;;14.30;13.10;;;24.40;99.90;;;;;;4991651;28;20568;-53
2023/06/21 08:33:32;;;;;;;17.03;13.37;;;24.50;99.90;;;;;;4993060;28;20542;-52
2023/06/21 08:35:58;;;;;;;16.70;15.00;;;24.60;99.90;;;;;;4995570;28;20556;-54
2023/06/21 08:38:25;;;;;;;16.27;13.47;;;24.60;99.90;;;;;;4994087;28;20469;-55
2023/06/21 08:40:58;;;;;;;16.70;14.10;;;24.70;99.90;;;;;;5005665;28;20909;-54
2023/06/21 08:43:24;;;;;;;18.23;14.90;;;24.80;99.90;;;;;;5001755;28;20572;-53
2023/06/21 08:45:52;;;;;;;15.07;13.50;;;24.80;99.90;;;;;;5000584;28;20555;-54
2023/06/21 08:48:21;;;;;;;16.73;11.43;;;24.90;99.90;;;;;;4992751;28;20908;-54
2023/06/21 08:50:49;;;;;;;12.43;11.20;;;24.90;99.90;;;;;;4992904;28;20571;-53
2023/06/21 08:53:25;;;;;;;12.93;11.73;;;24.80;99.90;;;;;;4992929;28;20488;-53
2023/06/21 08:55:54;;;;;;;13.83;11.23;;;24.80;99.90;;;;;;4999809;28;20543;-54
2023/06/21 08:58:26;;;;;;;16.50;11.10;;;24.80;99.90;;;;;;4995408;28;20579;-53
2023/06/21 09:00:54;;;;;;;13.17;11.47;;;24.90;99.90;;;;;;5006201;28;20567;-53
2023/06/21 09:03:26;;;;;;;10.77;9.70;;;25.00;99.90;;;;;;4998336;28;20484;-53
2023/06/21 09:05:57;;;;;;;12.33;11.07;;;25.20;99.90;;;;;;4989347;28;20460;-54
2023/06/21 09:08:24;;;;;;;12.40;11.20;;;25.30;99.90;;;;;;4994294;28;20469;-53
2023/06/21 09:10:54;;;;;;;13.10;11.03;;;25.50;99.90;;;;;;4995239;28;20584;-53
2023/06/21 09:13:22;;;;;;;12.63;11.00;;;25.50;99.90;;;;;;4992438;28;20465;-52
2023/06/21 09:15:51;;;;;;;14.53;10.60;;;25.80;99.90;;;;;;4991727;28;21027;-54
2023/06/21 09:18:18;;;;;;;12.20;11.00;;;26.10;21.40;;;;;;5000381;28;20453;-53
2023/06/21 09:20:47;;;;;;;12.10;10.80;;;26.50;99.90;;;;;;4992744;28;20564;-53
2023/06/21 09:23:14;;;;;;;11.33;10.20;;;26.50;29.00;;;;;;4998213;28;20567;-53
2023/06/21 09:25:42;;;;;;;14.17;11.30;;;26.80;45.00;;;;;;4993447;28;20555;-52
2023/06/21 09:28:09;;;;;;;10.57;9.57;;;26.80;66.60;;;;;;4992101;28;20580;-53
2023/06/21 09:30:36;;;;;;;12.63;11.50;;;26.80;85.10;;;;;;4991691;28;20900;-52
2023/06/21 09:33:03;;;;;;;16.60;10.77;;;26.50;99.90;;;;;;5000517;28;20514;-52
2023/06/21 09:35:30;;;;;;;11.00;9.97;;;26.50;99.90;;;;;;4998407;28;20477;-53
2023/06/21 09:37:56;;;;;;;15.70;9.87;;;26.50;99.90;;;;;;4992898;28;20464;-53
2023/06/21 09:40:23;;;;;;;11.07;10.00;;;26.60;99.90;;;;;;4994435;28;20493;-54
2023/06/21 09:42:51;;;;;;;11.07;9.13;;;26.30;99.90;;;;;;4992475;28;20615;-53
2023/06/21 09:45:20;;;;;;;10.93;8.87;;;26.00;99.90;;;;;;4998493;28;20587;-52
2023/06/21 09:47:47;;;;;;;9.73;8.83;;;26.20;99.90;;;;;;4992722;28;20515;-54
2023/06/21 09:50:14;;;;;;;11.27;9.80;;;26.40;99.90;;;;;;4990844;28;20551;-53
2023/06/21 09:52:43;;;;;;;9.70;8.87;;;26.20;99.90;;;;;;4990970;28;21520;-53
2023/06/21 09:55:13;;;;;;;12.30;11.00;;;25.90;99.90;;;;;;4992607;28;20461;-53
2023/06/21 09:57:40;;;;;;;11.27;9.73;;;25.80;99.90;;;;;;4996322;28;20934;-53
2023/06/21 10:00:08;;;;;;;11.57;10.57;;;25.60;99.90;;;;;;4993950;28;20912;-54
2023/06/21 10:02:39;;;;;;;11.83;10.00;;;25.60;99.90;;;;;;4992674;28;20596;-53
2023/06/21 10:05:15;;;;;;;11.40;10.30;;;25.50;99.90;;;;;;4990893;28;20465;-53
2023/06/21 10:07:43;;;;;;;10.23;9.20;;;25.30;99.90;;;;;;4990771;28;20544;-52
2023/06/21 10:10:11;;;;;;;13.47;12.10;;;25.80;99.90;;;;;;4991346;28;20495;-54
2023/06/21 10:12:37;;;;;;;10.93;9.93;;;26.00;99.90;;;;;;4995844;28;20543;-53
2023/06/21 10:15:06;;;;;;;11.60;10.60;;;25.80;99.90;;;;;;4991344;28;20579;-55
2023/06/21 10:17:33;;;;;;;9.67;8.80;;;25.90;99.90;;;;;;4982089;28;20548;-53
2023/06/21 10:20:03;;;;;;;9.23;8.20;;;26.20;99.90;;;;;;4989145;28;20603;-54
2023/06/21 10:22:36;;;;;;;8.93;8.00;;;26.60;99.90;;;;;;4998500;28;20554;-54
2023/06/21 10:25:04;;;;;;;7.83;7.10;;;27.00;99.90;;;;;;4990563;28;20990;-53
2023/06/21 10:27:32;;;;;;;8.83;8.03;;;26.90;99.90;;;;;;5000362;28;20468;-53
2023/06/21 10:30:01;;;;;;;8.97;8.00;;;26.60;99.90;;;;;;4993233;28;20592;-55
2023/06/21 10:32:28;;;;;;;10.40;7.60;;;26.80;80.80;;;;;;4984992;28;20569;-52
2023/06/21 10:34:58;;;;;;;11.33;7.60;;;26.60;47.40;;;;;;4997378;28;20546;-52
2023/06/21 10:37:38;;;;;;;7.40;6.73;;;26.70;32.70;;;;;;4987877;28;20464;-54
2023/06/21 10:40:07;;;;;;;10.30;9.30;;;26.80;42.80;;;;;;4995364;28;20926;-54
2023/06/21 10:42:35;;;;;;;12.63;8.27;;;26.80;38.60;;;;;;4990486;28;20461;-53
2023/06/21 10:45:04;;;;;;;9.03;8.33;;;26.60;40.00;;;;;;4989667;28;20465;-53
2023/06/21 10:47:32;;;;;;;10.13;8.10;;;26.30;42.00;;;;;;4989595;28;20556;-53
2023/06/21 10:49:59;;;;;;;8.63;7.40;;;26.10;39.90;;;;;;4990850;28;20571;-53
2023/06/21 10:52:29;;;;;;;8.27;7.47;;;25.90;26.80;;;;;;4990332;28;20543;-54
2023/06/21 10:54:58;;;;;;;11.47;7.13;;;25.90;23.80;;;;;;4992125;28;20548;-52
2023/06/21 10:57:26;;;;;;;8.20;7.50;;;26.20;30.60;;;;;;4981997;28;20558;-53
2023/06/21 10:59:54;;;;;;;7.97;7.37;;;26.30;32.60;;;;;;4986115;28;21021;-53
2023/06/21 11:02:20;;;;;;;8.37;7.57;;;26.20;24.30;;;;;;4991736;28;20516;-53
2023/06/21 11:05:12;;;;;;;7.57;7.07;;;26.20;28.60;;;;;;4989764;28;20579;-53
2023/06/21 11:07:46;;;;;;;8.17;7.50;;;26.10;32.50;;;;;;4983222;28;20456;-53
2023/06/21 11:10:13;;;;;;;8.20;7.40;;;26.00;82.00;;;;;;4990240;28;20483;-53
2023/06/21 11:12:40;;;;;;;10.80;8.50;;;25.90;30.50;;;;;;4991023;28;20539;-54
2023/06/21 11:15:07;;;;;;;8.83;8.00;;;25.90;31.00;;;;;;4999386;28;20551;-53
2023/06/21 11:17:36;;;;;;;7.87;7.20;;;25.90;32.10;;;;;;4989661;28;20475;-54
2023/06/21 11:20:22;;;;;;;8.20;7.50;;;26.20;34.30;;;;;;4989616;28;20572;-53
2023/06/21 11:22:57;;;;;;;8.80;8.00;;;26.30;41.90;;;;;;4992992;28;20521;-57
2023/06/21 11:25:24;;;;;;;8.93;8.23;;;26.60;33.80;;;;;;4985631;28;20460;-57
2023/06/21 11:28:26;;;;;;;7.20;6.67;;;26.70;46.10;;;;;;4984001;28;20469;-56
2023/06/21 11:31:14;;;;;;;8.23;7.50;;;26.60;51.50;;;;;;4977266;28;20555;-57
2023/06/21 11:33:54;;;;;;;7.67;7.03;;;26.50;43.20;;;;;;4992541;28;20479;-56
2023/06/21 11:36:26;;;;;;;7.50;6.90;;;26.50;43.80;;;;;;4997334;28;20487;-56
2023/06/21 11:39:22;;;;;;;24.93;7.80;;;26.60;52.30;;;;;;4987412;28;20468;-56
2023/06/21 11:42:00;;;;;;;17.40;6.30;;;27.00;55.50;;;;;;4985574;28;20492;-58
2023/06/21 11:44:31;;;;;;;7.40;6.80;;;27.10;74.70;;;;;;4998327;28;20492;-56
2023/06/21 11:47:18;;;;;;;13.17;6.87;;;27.30;77.50;;;;;;4992335;28;20464;-56
2023/06/21 11:49:50;;;;;;;14.00;6.27;;;27.10;76.30;;;;;;4994129;28;20483;-57
2023/06/21 11:52:22;;;;;;;7.83;7.10;;;27.20;68.10;;;;;;4999234;28;20456;-58
2023/06/21 11:54:50;;;;;;;7.30;6.70;;;27.40;75.30;;;;;;4990014;28;20837;-58
2023/06/21 11:57:17;;;;;;;12.40;6.40;;;27.40;91.80;;;;;;4993519;28;20818;-57
2023/06/21 11:59:45;;;;;;;8.40;7.60;;;27.50;89.50;;;;;;4996215;28;20515;-57
2023/06/21 12:02:13;;;;;;;6.90;5.67;;;27.30;92.50;;;;;;4989593;28;20963;-56
2023/06/21 12:04:41;;;;;;;5.83;5.43;;;27.00;85.90;;;;;;4991288;28;20491;-56
2023/06/21 12:07:09;;;;;;;11.13;5.50;;;27.30;99.20;;;;;;4991189;28;20552;-57
2023/06/21 12:09:36;;;;;;;5.73;5.23;;;27.70;99.90;;;;;;4985758;28;20880;-57
2023/06/21 12:12:06;;;;;;;6.13;5.60;;;28.10;99.90;;;;;;4989248;28;20493;-56
2023/06/21 12:14:33;;;;;;;6.77;5.30;;;28.10;99.90;;;;;;4988064;28;20551;-52
2023/06/21 12:16:59;;;;;;;6.00;5.37;;;28.50;99.90;;;;;;4991092;28;20497;-53
2023/06/21 12:19:26;;;;;;;5.10;4.70;;;28.60;99.90;;;;;;4989818;28;20579;-52
2023/06/21 12:21:59;;;;;;;6.73;5.73;;;28.40;99.90;;;;;;4988487;28;20555;-52
2023/06/21 12:24:27;;;;;;;7.33;5.17;;;28.40;99.90;;;;;;4986172;28;20484;-52
2023/06/21 12:26:54;;;;;;;4.97;4.67;;;28.50;99.90;;;;;;4979614;28;20463;-52
2023/06/21 12:29:22;;;;;;;8.30;5.47;;;28.50;99.90;;;;;;4994287;28;20476;-53
2023/06/21 12:31:49;;;;;;;5.23;4.83;;;28.50;99.90;;;;;;4993538;28;20539;-52
2023/06/21 12:34:16;;;;;;;5.60;5.20;;;28.40;99.90;;;;;;4988523;28;20488;-52
2023/06/21 12:36:45;;;;;;;6.17;5.40;;;28.50;99.90;;;;;;4984625;28;20461;-53
2023/06/21 12:39:12;;;;;;;6.23;5.63;;;28.10;99.90;;;;;;5000378;28;21041;-52